Last 6 Hours

AM-Roundhouse Btm 6950'

15 Minute Data | America/Los_Angeles
as of 6/24/24 8:38 PM PDT
Date & Time Temp (°F) RH (%) Dew Pt (°F) Wet Bulb (°F) Wind Dir (°) Wind Spd (mph) Wind Gust (mph) WindChill (°F) Barometric Press (inHg) Latest Rain (In) SnowDepth (in) Daily Rain (In) Daily Min Temp (°F) Daily Max Temp (°F)
6/24/24 - 2030 63.6 39 38.5 49.4 S | 180 2.5 6.6 63.6 30.20 0.00 204.0 0.00 58.9 71.9
6/24/24 - 2015 64.1 39 38.9 49.8 SSE | 150 2.9 7.7 64.1 30.20 0.00 1.4 0.00 58.9 71.9
6/24/24 - 2000 64.3 40 39.7 50.3 SSE | 155 1.8 5.8 64.3 30.20 0.00 1.4 0.00 58.9 71.9
6/24/24 - 1945 65.2 40 40.1 50.8 SE | 134 2.6 7.1 65.2 30.20 0.00 1.1 0.00 58.9 71.9
6/24/24 - 1930 66.2 39 40.4 51.3 SE | 143 4.4 11.6 66.2 30.18 0.00 1.5 0.00 58.9 71.9
6/24/24 - 1915 66.6 40 41.2 51.8 SE | 126 3.7 8.5 66.6 30.19 0.00 0.4 0.00 58.9 71.9
6/24/24 - 1900 67.2 39 41.3 52.0 ESE | 109 3.2 12.1 67.2 30.19 0.00 0.9 0.00 58.9 71.9
6/24/24 - 1845 67.7 39 42.1 52.6 SE | 134 3.7 9.5 67.7 30.20 0.00 0.6 0.00 58.9 71.9
6/24/24 - 1830 68.6 40 43.3 53.5 SE | 139 2.8 13.0 68.6 30.19 0.00 0.8 0.00 58.9 71.9
6/24/24 - 1815 69.0 42 44.8 54.3 NE | 47 4.1 11.2 69.0 30.19 0.00 0.4 0.00 58.9 71.9
6/24/24 - 1800 69.4 42 45.2 54.6 E | 88 4.8 16.1 69.4 30.19 0.00 1.2 0.00 58.9 71.9
6/24/24 - 1745 69.8 38 42.8 53.7 SE | 137 5.4 16.0 69.8 30.18 0.00 0.6 0.00 58.9 71.9
6/24/24 - 1730 69.8 37 42.6 53.6 ESE | 114 4.7 13.3 69.8 30.19 0.00 1.5 0.00 58.9 71.9
6/24/24 - 1715 70.0 38 43.2 53.9 ESE | 120 4.3 14.2 70.0 30.20 0.00 1.2 0.00 58.9 71.9
6/24/24 - 1700 70.1 40 44.8 54.7 SE | 140 4.7 15.3 70.1 30.20 0.00 1.2 0.00 58.9 71.9
6/24/24 - 1645 70.5 41 45.8 55.3 ENE | 61 6.3 17.6 70.5 30.19 0.00 1.0 0.00 58.9 71.9
6/24/24 - 1630 70.2 41 45.6 55.1 E | 80 4.0 10.9 70.2 30.19 0.00 0.0 0.00 58.9 71.9
6/24/24 - 1615 70.5 42 46.3 55.6 ESE | 121 4.8 16.4 70.5 30.18 0.00 1.0 0.00 58.9 71.9
6/24/24 - 1600 70.5 45 48.5 56.6 SE | 124 4.2 12.2 70.5 30.19 0.00 0.3 0.00 58.9 71.9
6/24/24 - 1545 70.2 44 47.4 56.0 E | 90 4.9 20.1 70.2 30.18 0.00 0.3 0.00 58.9 71.9
6/24/24 - 1530 70.2 44 47.6 56.0 E | 89 6.7 18.2 70.2 30.20 0.00 0.2 0.00 58.9 71.9
6/24/24 - 1515 70.1 45 48.0 56.2 ENE | 61 4.6 15.7 70.1 30.20 0.00 0.5 0.00 58.9 71.9
6/24/24 - 1500 70.7 44 47.6 56.2 SE | 134 7.0 18.5 70.7 30.20 0.00 0.0 0.00 58.9 71.9
6/24/24 - 1445 70.8 46 49.2 57.1 SE | 131 6.6 18.0 70.8 30.20 0.00 204.0 0.00 58.9 71.9
Max 70.8 46 49.2 57.1 - 7.0 20.1 70.8 30.20 0.00 204.0 0.00 58.9 71.9
Avg 68.5 41 44.0 53.8 - 4.4 13.2 68.5 30.19 0.00 - - - -
Min 63.6 37 38.5 49.4 - 1.8 5.8 63.6 30.18 0.00 0.0 0.00 58.9 71.9
Total - - - - - - - - - 0.00 - - - -